KBLF/BLF METAR and TAF weather

Enter ICAO airport designator
Station Type Date Time Source
KBLF METAR 2021/09/23 23:52 UTC NOAA

KBLF 232352Z AUTO 29004KT 10SM CLR 11/05 A3007 RMK AO2 SLP173 T01110050 10150 20111 51015


Station Type Date Time Source
KBLF Decoded METAR 2021/09/23 23:52 UTC NOAA

BLUEFIELD MERCER COUNTY AIRPORT , WV, United States (KBLF) 37-18N 081-12W 873M
Sep 23, 2021 - 07:52 PM EDT / 2021.09.23 2352 UTC
Wind: from the WNW (290 degrees) at 5 MPH (4 KT):0
Visibility: 10 mile(s):0
Sky conditions: clear
Temperature: 52.0 F (11.1 C)
Dew Point: 41.0 F (5.0 C)
Relative Humidity: 66%
Pressure (altimeter): 30.07 in. Hg (1018 hPa)
Pressure tendency: 0.04 inches (1.5 hPa) higher than three hours ago
ob: KBLF 232352Z AUTO 29004KT 10SM CLR 11/05 A3007 RMK AO2 SLP173 T01110050 10150 20111 51015
cycle: 0

Station Type Date Time Source
KBLF TAF 2021/09/23 18:22 UTC NOAA

TAF KBLF 231720Z 2318/2418 28010G18KT P6SM SCT030
FM232300 29006KT P6SM FEW025
FM240500 28003KT P6SM SKC
FM241500 29006KT P6SM SKC

Example: see airport list